sensor_id;sensor_type;location;lat;lon;timestamp;temperature;humidity
54260;DHT22;40172;53.022;7.012;2024-03-23T00:53:07;5.90;99.90
54260;DHT22;40172;53.022;7.012;2024-03-23T00:55:33;6.10;99.90
54260;DHT22;40172;53.022;7.012;2024-03-23T00:57:59;5.90;99.90
54260;DHT22;40172;53.022;7.012;2024-03-23T01:00:24;6.10;99.90
54260;DHT22;40172;53.022;7.012;2024-03-23T01:02:50;5.80;99.90
54260;DHT22;40172;53.022;7.012;2024-03-23T01:05:16;5.70;99.90
54260;DHT22;40172;53.022;7.012;2024-03-23T01:07:41;5.70;99.90
54260;DHT22;40172;53.022;7.012;2024-03-23T01:10:07;5.70;99.90
54260;DHT22;40172;53.022;7.012;2024-03-23T01:12:33;5.80;99.90
54260;DHT22;40172;53.022;7.012;2024-03-23T01:14:59;5.70;99.90
54260;DHT22;40172;53.022;7.012;2024-03-23T01:17:24;6.00;99.90
54260;DHT22;40172;53.022;7.012;2024-03-23T01:19:50;6.20;99.90
54260;DHT22;40172;53.022;7.012;2024-03-23T01:22:16;5.60;99.90
54260;DHT22;40172;53.022;7.012;2024-03-23T01:24:41;5.60;99.90
54260;DHT22;40172;53.022;7.012;2024-03-23T01:27:08;5.60;99.90
54260;DHT22;40172;53.022;7.012;2024-03-23T01:29:34;5.50;99.90
54260;DHT22;40172;53.022;7.012;2024-03-23T01:31:59;5.50;99.90
54260;DHT22;40172;53.022;7.012;2024-03-23T01:34:25;5.50;99.90
54260;DHT22;40172;53.022;7.012;2024-03-23T01:36:51;5.50;99.90
54260;DHT22;40172;53.022;7.012;2024-03-23T01:39:17;5.50;99.90
54260;DHT22;40172;53.022;7.012;2024-03-23T01:41:42;5.50;99.90
54260;DHT22;40172;53.022;7.012;2024-03-23T01:44:08;5.70;99.90
54260;DHT22;40172;53.022;7.012;2024-03-23T01:46:38;5.40;99.90
54260;DHT22;40172;53.022;7.012;2024-03-23T01:49:08;5.50;99.90
54260;DHT22;40172;53.022;7.012;2024-03-23T01:51:34;5.40;99.90
54260;DHT22;40172;53.022;7.012;2024-03-23T01:54:02;5.50;99.90
54260;DHT22;40172;53.022;7.012;2024-03-23T01:56:33;5.40;99.90
54260;DHT22;40172;53.022;7.012;2024-03-23T01:59:01;5.30;99.90
54260;DHT22;40172;53.022;7.012;2024-03-23T02:01:27;5.30;99.90
54260;DHT22;40172;53.022;7.012;2024-03-23T02:03:52;5.60;99.90
54260;DHT22;40172;53.022;7.012;2024-03-23T02:06:18;5.30;99.90
54260;DHT22;40172;53.022;7.012;2024-03-23T02:08:44;5.20;99.90
54260;DHT22;40172;53.022;7.012;2024-03-23T02:11:09;5.10;99.90
54260;DHT22;40172;53.022;7.012;2024-03-23T02:13:35;5.30;99.90
54260;DHT22;40172;53.022;7.012;2024-03-23T02:16:01;5.10;99.90
54260;DHT22;40172;53.022;7.012;2024-03-23T02:18:27;4.90;99.90
54260;DHT22;40172;53.022;7.012;2024-03-23T02:20:53;5.00;99.90
54260;DHT22;40172;53.022;7.012;2024-03-23T02:23:18;4.90;99.90
54260;DHT22;40172;53.022;7.012;2024-03-23T02:25:44;5.30;99.90
54260;DHT22;40172;53.022;7.012;2024-03-23T02:28:10;4.90;99.90
54260;DHT22;40172;53.022;7.012;2024-03-23T02:30:37;5.20;99.90
54260;DHT22;40172;53.022;7.012;2024-03-23T02:33:03;5.00;99.90
54260;DHT22;40172;53.022;7.012;2024-03-23T02:35:29;4.90;99.90
54260;DHT22;40172;53.022;7.012;2024-03-23T02:37:55;5.00;99.90
54260;DHT22;40172;53.022;7.012;2024-03-23T02:40:23;5.20;99.90
54260;DHT22;40172;53.022;7.012;2024-03-23T02:42:49;5.10;99.90
54260;DHT22;40172;53.022;7.012;2024-03-23T02:45:15;4.90;99.90
54260;DHT22;40172;53.022;7.012;2024-03-23T02:47:40;4.80;99.90
54260;DHT22;40172;53.022;7.012;2024-03-23T02:50:06;5.90;99.90
54260;DHT22;40172;53.022;7.012;2024-03-23T02:52:32;4.80;99.90
54260;DHT22;40172;53.022;7.012;2024-03-23T02:54:58;5.10;99.90
54260;DHT22;40172;53.022;7.012;2024-03-23T02:57:24;4.70;99.90
54260;DHT22;40172;53.022;7.012;2024-03-23T02:59:49;4.70;99.90
54260;DHT22;40172;53.022;7.012;2024-03-23T03:02:16;4.70;99.90
54260;DHT22;40172;53.022;7.012;2024-03-23T03:04:41;5.30;99.90
54260;DHT22;40172;53.022;7.012;2024-03-23T03:07:08;5.60;99.90
54260;DHT22;40172;53.022;7.012;2024-03-23T03:09:33;4.60;99.90
54260;DHT22;40172;53.022;7.012;2024-03-23T03:12:04;4.90;99.90
54260;DHT22;40172;53.022;7.012;2024-03-23T03:14:29;4.60;99.90
54260;DHT22;40172;53.022;7.012;2024-03-23T03:16:55;4.80;99.90
54260;DHT22;40172;53.022;7.012;2024-03-23T03:19:21;4.60;99.90
54260;DHT22;40172;53.022;7.012;2024-03-23T03:21:47;5.20;99.90
54260;DHT22;40172;53.022;7.012;2024-03-23T03:24:13;4.70;99.90
54260;DHT22;40172;53.022;7.012;2024-03-23T03:26:39;4.90;99.90
54260;DHT22;40172;53.022;7.012;2024-03-23T03:29:04;5.60;99.90
54260;DHT22;40172;53.022;7.012;2024-03-23T03:31:30;4.60;99.90
54260;DHT22;40172;53.022;7.012;2024-03-23T03:33:56;5.00;99.90
54260;DHT22;40172;53.022;7.012;2024-03-23T03:36:22;4.50;99.90
54260;DHT22;40172;53.022;7.012;2024-03-23T03:38:48;5.10;99.90
54260;DHT22;40172;53.022;7.012;2024-03-23T03:41:13;5.10;99.90
54260;DHT22;40172;53.022;7.012;2024-03-23T03:43:39;5.20;99.90
54260;DHT22;40172;53.022;7.012;2024-03-23T03:46:05;5.10;99.90
54260;DHT22;40172;53.022;7.012;2024-03-23T03:48:33;4.90;99.90
54260;DHT22;40172;53.022;7.012;2024-03-23T03:51:00;4.80;99.90
54260;DHT22;40172;53.022;7.012;2024-03-23T03:53:25;4.30;99.90
54260;DHT22;40172;53.022;7.012;2024-03-23T03:55:51;5.40;99.90
54260;DHT22;40172;53.022;7.012;2024-03-23T03:58:17;4.90;99.90
54260;DHT22;40172;53.022;7.012;2024-03-23T04:00:43;4.10;99.90
54260;DHT22;40172;53.022;7.012;2024-03-23T04:03:09;4.20;99.90
54260;DHT22;40172;53.022;7.012;2024-03-23T04:05:35;5.10;99.90
54260;DHT22;40172;53.022;7.012;2024-03-23T04:08:00;5.00;99.90
54260;DHT22;40172;53.022;7.012;2024-03-23T04:10:26;4.00;99.90
54260;DHT22;40172;53.022;7.012;2024-03-23T04:12:52;4.90;99.90
54260;DHT22;40172;53.022;7.012;2024-03-23T04:15:19;4.30;99.90
54260;DHT22;40172;53.022;7.012;2024-03-23T04:17:45;5.00;99.90
54260;DHT22;40172;53.022;7.012;2024-03-23T04:20:11;5.30;99.90
54260;DHT22;40172;53.022;7.012;2024-03-23T04:22:39;5.10;99.90
54260;DHT22;40172;53.022;7.012;2024-03-23T04:25:06;3.90;99.90
54260;DHT22;40172;53.022;7.012;2024-03-23T04:27:39;4.00;99.90
54260;DHT22;40172;53.022;7.012;2024-03-23T04:30:06;4.00;99.90
54260;DHT22;40172;53.022;7.012;2024-03-23T04:32:37;3.90;99.90
54260;DHT22;40172;53.022;7.012;2024-03-23T04:35:03;3.90;99.90
54260;DHT22;40172;53.022;7.012;2024-03-23T04:37:34;4.00;99.90
54260;DHT22;40172;53.022;7.012;2024-03-23T04:40:00;5.10;99.90
54260;DHT22;40172;53.022;7.012;2024-03-23T04:42:29;4.70;99.90
54260;DHT22;40172;53.022;7.012;2024-03-23T04:44:55;5.20;99.90
54260;DHT22;40172;53.022;7.012;2024-03-23T04:47:21;4.30;99.90
54260;DHT22;40172;53.022;7.012;2024-03-23T04:49:48;4.00;99.90
54260;DHT22;40172;53.022;7.012;2024-03-23T04:52:14;5.00;99.90
54260;DHT22;40172;53.022;7.012;2024-03-23T04:54:39;4.60;99.90
54260;DHT22;40172;53.022;7.012;2024-03-23T04:57:06;4.40;99.90
54260;DHT22;40172;53.022;7.012;2024-03-23T04:59:32;4.00;99.90
54260;DHT22;40172;53.022;7.012;2024-03-23T05:01:57;5.20;99.90
54260;DHT22;40172;53.022;7.012;2024-03-23T05:04:23;3.90;99.90
54260;DHT22;40172;53.022;7.012;2024-03-23T05:06:49;3.90;99.90
54260;DHT22;40172;53.022;7.012;2024-03-23T05:09:14;3.80;99.90
54260;DHT22;40172;53.022;7.012;2024-03-23T05:11:40;4.70;99.90
54260;DHT22;40172;53.022;7.012;2024-03-23T05:14:07;4.50;99.90
54260;DHT22;40172;53.022;7.012;2024-03-23T05:16:33;4.10;99.90
54260;DHT22;40172;53.022;7.012;2024-03-23T05:18:59;4.30;99.90
54260;DHT22;40172;53.022;7.012;2024-03-23T05:21:26;3.90;99.90
54260;DHT22;40172;53.022;7.012;2024-03-23T05:23:53;4.50;99.90
54260;DHT22;40172;53.022;7.012;2024-03-23T05:26:19;4.30;99.90
54260;DHT22;40172;53.022;7.012;2024-03-23T05:28:45;3.80;99.90
54260;DHT22;40172;53.022;7.012;2024-03-23T05:31:11;4.90;99.90
54260;DHT22;40172;53.022;7.012;2024-03-23T05:33:37;3.90;99.90
54260;DHT22;40172;53.022;7.012;2024-03-23T05:36:04;3.70;99.90
54260;DHT22;40172;53.022;7.012;2024-03-23T05:38:29;3.70;99.90
54260;DHT22;40172;53.022;7.012;2024-03-23T05:40:59;3.80;99.90
54260;DHT22;40172;53.022;7.012;2024-03-23T05:43:25;3.70;99.90
54260;DHT22;40172;53.022;7.012;2024-03-23T05:45:58;4.20;99.90
54260;DHT22;40172;53.022;7.012;2024-03-23T05:48:28;3.80;99.90
54260;DHT22;40172;53.022;7.012;2024-03-23T05:50:55;3.80;99.90
54260;DHT22;40172;53.022;7.012;2024-03-23T05:53:21;3.80;99.90
54260;DHT22;40172;53.022;7.012;2024-03-23T05:55:47;5.10;99.90
54260;DHT22;40172;53.022;7.012;2024-03-23T05:58:15;5.20;99.90
54260;DHT22;40172;53.022;7.012;2024-03-23T06:00:41;3.90;99.90
54260;DHT22;40172;53.022;7.012;2024-03-23T06:03:08;3.90;99.90
54260;DHT22;40172;53.022;7.012;2024-03-23T06:05:34;5.30;99.90
54260;DHT22;40172;53.022;7.012;2024-03-23T06:08:00;4.10;99.90
54260;DHT22;40172;53.022;7.012;2024-03-23T06:10:25;5.30;99.90
54260;DHT22;40172;53.022;7.012;2024-03-23T06:12:51;5.00;99.90
54260;DHT22;40172;53.022;7.012;2024-03-23T06:15:21;4.00;99.90
54260;DHT22;40172;53.022;7.012;2024-03-23T06:17:48;4.80;99.90
54260;DHT22;40172;53.022;7.012;2024-03-23T06:20:14;4.20;99.90
54260;DHT22;40172;53.022;7.012;2024-03-23T06:22:40;4.90;99.90
54260;DHT22;40172;53.022;7.012;2024-03-23T06:25:06;5.60;99.90
54260;DHT22;40172;53.022;7.012;2024-03-23T06:27:32;4.40;99.90
54260;DHT22;40172;53.022;7.012;2024-03-23T06:30:01;4.70;99.90
54260;DHT22;40172;53.022;7.012;2024-03-23T06:32:28;4.60;99.90
54260;DHT22;40172;53.022;7.012;2024-03-23T06:34:54;5.00;99.90
54260;DHT22;40172;53.022;7.012;2024-03-23T06:37:20;4.70;99.90
54260;DHT22;40172;53.022;7.012;2024-03-23T06:39:46;4.80;99.90
54260;DHT22;40172;53.022;7.012;2024-03-23T06:42:12;5.00;99.90
54260;DHT22;40172;53.022;7.012;2024-03-23T06:44:38;5.10;99.90
54260;DHT22;40172;53.022;7.012;2024-03-23T06:47:05;5.10;99.90
54260;DHT22;40172;53.022;7.012;2024-03-23T06:49:30;5.20;99.90
54260;DHT22;40172;53.022;7.012;2024-03-23T06:51:56;5.40;99.90
54260;DHT22;40172;53.022;7.012;2024-03-23T06:54:22;5.40;99.90
54260;DHT22;40172;53.022;7.012;2024-03-23T06:56:50;5.80;99.90
54260;DHT22;40172;53.022;7.012;2024-03-23T06:59:15;5.40;99.90
54260;DHT22;40172;53.022;7.012;2024-03-23T07:01:41;5.60;99.90
54260;DHT22;40172;53.022;7.012;2024-03-23T07:04:07;5.40;99.90
54260;DHT22;40172;53.022;7.012;2024-03-23T07:06:33;5.20;99.90
54260;DHT22;40172;53.022;7.012;2024-03-23T07:08:59;5.90;99.90
54260;DHT22;40172;53.022;7.012;2024-03-23T07:11:25;5.20;99.90
54260;DHT22;40172;53.022;7.012;2024-03-23T07:13:52;5.20;99.90
54260;DHT22;40172;53.022;7.012;2024-03-23T07:16:20;5.10;99.90
54260;DHT22;40172;53.022;7.012;2024-03-23T07:18:46;5.20;99.90
54260;DHT22;40172;53.022;7.012;2024-03-23T07:21:13;5.10;99.90
54260;DHT22;40172;53.022;7.012;2024-03-23T07:23:42;5.10;99.90
54260;DHT22;40172;53.022;7.012;2024-03-23T07:26:10;5.20;99.90
54260;DHT22;40172;53.022;7.012;2024-03-23T07:28:35;5.20;99.90
54260;DHT22;40172;53.022;7.012;2024-03-23T07:31:09;5.40;99.90
54260;DHT22;40172;53.022;7.012;2024-03-23T07:33:36;5.20;99.90
54260;DHT22;40172;53.022;7.012;2024-03-23T07:36:02;5.30;99.90
54260;DHT22;40172;53.022;7.012;2024-03-23T07:38:29;5.20;99.90
54260;DHT22;40172;53.022;7.012;2024-03-23T07:41:05;5.50;99.90
54260;DHT22;40172;53.022;7.012;2024-03-23T07:43:30;5.30;99.90
54260;DHT22;40172;53.022;7.012;2024-03-23T07:45:56;5.50;99.90
54260;DHT22;40172;53.022;7.012;2024-03-23T07:48:22;5.40;99.90
54260;DHT22;40172;53.022;7.012;2024-03-23T07:51:00;6.50;99.90
54260;DHT22;40172;53.022;7.012;2024-03-23T07:53:27;5.60;99.90
54260;DHT22;40172;53.022;7.012;2024-03-23T07:55:58;6.20;99.90
54260;DHT22;40172;53.022;7.012;2024-03-23T07:58:25;6.00;99.90
54260;DHT22;40172;53.022;7.012;2024-03-23T08:00:55;5.70;99.90
54260;DHT22;40172;53.022;7.012;2024-03-23T08:03:21;5.90;99.90
54260;DHT22;40172;53.022;7.012;2024-03-23T08:05:47;6.10;99.90
54260;DHT22;40172;53.022;7.012;2024-03-23T08:08:13;6.50;99.90
54260;DHT22;40172;53.022;7.012;2024-03-23T08:10:51;6.30;99.90
54260;DHT22;40172;53.022;7.012;2024-03-23T08:13:18;6.40;99.90
54260;DHT22;40172;53.022;7.012;2024-03-23T08:15:44;6.50;99.90
54260;DHT22;40172;53.022;7.012;2024-03-23T08:18:11;6.70;99.90
54260;DHT22;40172;53.022;7.012;2024-03-23T08:20:37;6.90;99.90
54260;DHT22;40172;53.022;7.012;2024-03-23T08:23:03;6.80;99.90
54260;DHT22;40172;53.022;7.012;2024-03-23T08:25:31;6.70;99.90
54260;DHT22;40172;53.022;7.012;2024-03-23T08:27:57;6.60;99.90
54260;DHT22;40172;53.022;7.012;2024-03-23T08:30:23;6.70;99.90
54260;DHT22;40172;53.022;7.012;2024-03-23T08:32:48;6.60;99.90
54260;DHT22;40172;53.022;7.012;2024-03-23T08:35:14;6.80;99.90
54260;DHT22;40172;53.022;7.012;2024-03-23T08:37:40;6.90;99.90
54260;DHT22;40172;53.022;7.012;2024-03-23T08:40:06;7.00;99.90
54260;DHT22;40172;53.022;7.012;2024-03-23T08:42:34;7.00;99.90
54260;DHT22;40172;53.022;7.012;2024-03-23T08:44:59;7.00;99.90
54260;DHT22;40172;53.022;7.012;2024-03-23T08:47:25;7.50;99.90
54260;DHT22;40172;53.022;7.012;2024-03-23T08:49:51;7.00;99.90
54260;DHT22;40172;53.022;7.012;2024-03-23T08:52:17;7.00;99.90
54260;DHT22;40172;53.022;7.012;2024-03-23T08:54:42;6.90;99.90
54260;DHT22;40172;53.022;7.012;2024-03-23T08:57:08;6.80;99.90
54260;DHT22;40172;53.022;7.012;2024-03-23T08:59:34;6.70;99.90
54260;DHT22;40172;53.022;7.012;2024-03-23T09:02:00;6.80;99.90
54260;DHT22;40172;53.022;7.012;2024-03-23T09:04:26;6.70;99.90
54260;DHT22;40172;53.022;7.012;2024-03-23T09:06:51;6.90;99.90
54260;DHT22;40172;53.022;7.012;2024-03-23T09:09:17;6.70;99.90
54260;DHT22;40172;53.022;7.012;2024-03-23T09:11:43;6.60;99.90
54260;DHT22;40172;53.022;7.012;2024-03-23T09:14:09;6.60;99.90
54260;DHT22;40172;53.022;7.012;2024-03-23T09:16:34;7.10;99.90
54260;DHT22;40172;53.022;7.012;2024-03-23T09:19:00;6.90;99.90
54260;DHT22;40172;53.022;7.012;2024-03-23T09:21:26;7.00;99.90
54260;DHT22;40172;53.022;7.012;2024-03-23T09:23:52;7.30;99.90
54260;DHT22;40172;53.022;7.012;2024-03-23T09:26:17;7.20;99.90
54260;DHT22;40172;53.022;7.012;2024-03-23T09:28:43;7.40;99.90
54260;DHT22;40172;53.022;7.012;2024-03-23T09:31:09;7.50;99.90
54260;DHT22;40172;53.022;7.012;2024-03-23T09:33:39;7.60;99.90
54260;DHT22;40172;53.022;7.012;2024-03-23T09:36:06;7.70;99.90
54260;DHT22;40172;53.022;7.012;2024-03-23T09:38:32;7.80;99.90
54260;DHT22;40172;53.022;7.012;2024-03-23T09:40:58;7.80;99.90
54260;DHT22;40172;53.022;7.012;2024-03-23T09:43:25;7.90;99.90
54260;DHT22;40172;53.022;7.012;2024-03-23T09:45:53;8.10;99.90
54260;DHT22;40172;53.022;7.012;2024-03-23T09:48:19;8.20;99.90
54260;DHT22;40172;53.022;7.012;2024-03-23T09:50:45;8.40;99.90
54260;DHT22;40172;53.022;7.012;2024-03-23T09:53:12;8.60;99.90
54260;DHT22;40172;53.022;7.012;2024-03-23T09:55:39;8.60;99.90
54260;DHT22;40172;53.022;7.012;2024-03-23T09:58:05;8.40;99.90
54260;DHT22;40172;53.022;7.012;2024-03-23T10:00:32;8.40;99.90
54260;DHT22;40172;53.022;7.012;2024-03-23T10:02:59;8.50;99.90
54260;DHT22;40172;53.022;7.012;2024-03-23T10:05:28;8.50;99.90
54260;DHT22;40172;53.022;7.012;2024-03-23T10:07:56;8.40;99.90
54260;DHT22;40172;53.022;7.012;2024-03-23T10:10:22;8.20;99.90
54260;DHT22;40172;53.022;7.012;2024-03-23T10:12:50;7.90;99.90
54260;DHT22;40172;53.022;7.012;2024-03-23T10:15:21;7.90;99.90
54260;DHT22;40172;53.022;7.012;2024-03-23T10:17:47;8.10;99.90
54260;DHT22;40172;53.022;7.012;2024-03-23T10:20:19;8.40;99.90
54260;DHT22;40172;53.022;7.012;2024-03-23T10:22:45;8.50;99.90
54260;DHT22;40172;53.022;7.012;2024-03-23T10:25:11;8.40;99.90
54260;DHT22;40172;53.022;7.012;2024-03-23T10:27:37;8.20;99.90
54260;DHT22;40172;53.022;7.012;2024-03-23T10:30:13;8.10;99.90
54260;DHT22;40172;53.022;7.012;2024-03-23T10:32:42;8.10;99.90
54260;DHT22;40172;53.022;7.012;2024-03-23T10:35:18;8.10;99.90
54260;DHT22;40172;53.022;7.012;2024-03-23T10:37:45;8.10;99.90
54260;DHT22;40172;53.022;7.012;2024-03-23T10:40:15;8.50;99.90
54260;DHT22;40172;53.022;7.012;2024-03-23T10:42:41;8.50;99.90
54260;DHT22;40172;53.022;7.012;2024-03-23T10:45:07;8.50;99.90
54260;DHT22;40172;53.022;7.012;2024-03-23T10:47:35;8.10;99.90
54260;DHT22;40172;53.022;7.012;2024-03-23T10:50:01;7.50;99.90
54260;DHT22;40172;53.022;7.012;2024-03-23T10:52:27;6.90;99.90
54260;DHT22;40172;53.022;7.012;2024-03-23T10:54:53;6.60;99.90
54260;DHT22;40172;53.022;7.012;2024-03-23T10:57:23;6.70;99.90
54260;DHT22;40172;53.022;7.012;2024-03-23T10:59:51;6.50;99.90
54260;DHT22;40172;53.022;7.012;2024-03-23T11:02:21;6.50;99.90
54260;DHT22;40172;53.022;7.012;2024-03-23T11:04:47;6.50;99.90
54260;DHT22;40172;53.022;7.012;2024-03-23T11:07:32;6.80;99.90
54260;DHT22;40172;53.022;7.012;2024-03-23T11:09:59;7.00;99.90
54260;DHT22;40172;53.022;7.012;2024-03-23T11:12:27;7.30;99.90
54260;DHT22;40172;53.022;7.012;2024-03-23T11:14:55;7.30;99.90
54260;DHT22;40172;53.022;7.012;2024-03-23T11:17:22;7.60;99.90
54260;DHT22;40172;53.022;7.012;2024-03-23T11:19:58;7.70;99.90
54260;DHT22;40172;53.022;7.012;2024-03-23T11:22:45;7.80;99.90
54260;DHT22;40172;53.022;7.012;2024-03-23T11:25:17;7.90;99.90
54260;DHT22;40172;53.022;7.012;2024-03-23T11:27:44;7.70;99.90
54260;DHT22;40172;53.022;7.012;2024-03-23T11:32:42;7.50;99.90
54260;DHT22;40172;53.022;7.012;2024-03-23T11:35:09;7.50;99.90
54260;DHT22;40172;53.022;7.012;2024-03-23T11:37:37;7.60;99.90
54260;DHT22;40172;53.022;7.012;2024-03-23T11:40:19;7.80;99.90
54260;DHT22;40172;53.022;7.012;2024-03-23T11:42:45;8.00;99.90
54260;DHT22;40172;53.022;7.012;2024-03-23T11:45:11;8.10;99.90
54260;DHT22;40172;53.022;7.012;2024-03-23T11:47:37;8.00;99.90
54260;DHT22;40172;53.022;7.012;2024-03-23T11:50:03;8.00;99.90
54260;DHT22;40172;53.022;7.012;2024-03-23T11:52:29;8.00;99.90
54260;DHT22;40172;53.022;7.012;2024-03-23T11:55:06;8.20;99.90
54260;DHT22;40172;53.022;7.012;2024-03-23T11:57:33;8.20;99.90
54260;DHT22;40172;53.022;7.012;2024-03-23T11:59:59;8.20;99.90
54260;DHT22;40172;53.022;7.012;2024-03-23T12:02:25;8.20;99.90
54260;DHT22;40172;53.022;7.012;2024-03-23T12:04:50;8.10;99.90
54260;DHT22;40172;53.022;7.012;2024-03-23T12:07:18;7.90;99.90
54260;DHT22;40172;53.022;7.012;2024-03-23T12:09:45;7.70;99.90
54260;DHT22;40172;53.022;7.012;2024-03-23T12:12:17;7.40;99.90
54260;DHT22;40172;53.022;7.012;2024-03-23T12:15:02;7.60;99.90
54260;DHT22;40172;53.022;7.012;2024-03-23T12:17:28;7.80;99.90
54260;DHT22;40172;53.022;7.012;2024-03-23T12:19:54;8.00;99.90
54260;DHT22;40172;53.022;7.012;2024-03-23T12:22:23;8.40;99.90
54260;DHT22;40172;53.022;7.012;2024-03-23T12:24:49;8.40;99.90
54260;DHT22;40172;53.022;7.012;2024-03-23T12:27:15;8.60;99.90
54260;DHT22;40172;53.022;7.012;2024-03-23T12:29:41;8.70;99.90
54260;DHT22;40172;53.022;7.012;2024-03-23T12:32:14;8.30;99.90
54260;DHT22;40172;53.022;7.012;2024-03-23T12:34:40;7.40;99.90
54260;DHT22;40172;53.022;7.012;2024-03-23T12:37:06;6.80;99.90
54260;DHT22;40172;53.022;7.012;2024-03-23T12:39:32;6.40;99.90
54260;DHT22;40172;53.022;7.012;2024-03-23T12:42:00;6.80;99.90
54260;DHT22;40172;53.022;7.012;2024-03-23T12:44:26;6.20;99.90
54260;DHT22;40172;53.022;7.012;2024-03-23T12:46:52;7.40;99.90
54260;DHT22;40172;53.022;7.012;2024-03-23T12:49:17;6.90;99.90
54260;DHT22;40172;53.022;7.012;2024-03-23T12:51:53;7.70;99.90
54260;DHT22;40172;53.022;7.012;2024-03-23T12:54:20;7.50;99.90
54260;DHT22;40172;53.022;7.012;2024-03-23T12:56:46;7.80;99.90
54260;DHT22;40172;53.022;7.012;2024-03-23T12:59:11;8.20;99.90
54260;DHT22;40172;53.022;7.012;2024-03-23T13:01:38;8.20;99.90
54260;DHT22;40172;53.022;7.012;2024-03-23T13:04:04;8.40;99.90
54260;DHT22;40172;53.022;7.012;2024-03-23T13:06:30;8.60;99.90
54260;DHT22;40172;53.022;7.012;2024-03-23T13:09:03;8.70;99.90
54260;DHT22;40172;53.022;7.012;2024-03-23T13:11:29;8.70;99.90
54260;DHT22;40172;53.022;7.012;2024-03-23T13:13:55;8.60;99.90
54260;DHT22;40172;53.022;7.012;2024-03-23T13:16:21;8.50;99.90
54260;DHT22;40172;53.022;7.012;2024-03-23T13:18:47;8.30;99.90
54260;DHT22;40172;53.022;7.012;2024-03-23T13:21:12;8.50;99.90
54260;DHT22;40172;53.022;7.012;2024-03-23T13:23:38;8.30;99.90
54260;DHT22;40172;53.022;7.012;2024-03-23T13:26:07;8.40;99.90
54260;DHT22;40172;53.022;7.012;2024-03-23T13:28:33;8.10;99.90
54260;DHT22;40172;53.022;7.012;2024-03-23T13:30:59;7.90;99.90
54260;DHT22;40172;53.022;7.012;2024-03-23T13:33:29;7.40;99.90
54260;DHT22;40172;53.022;7.012;2024-03-23T13:35:55;7.30;99.90
54260;DHT22;40172;53.022;7.012;2024-03-23T13:38:25;6.80;99.90
54260;DHT22;40172;53.022;7.012;2024-03-23T13:40:54;6.30;99.90
54260;DHT22;40172;53.022;7.012;2024-03-23T13:43:20;6.20;99.90
54260;DHT22;40172;53.022;7.012;2024-03-23T13:45:57;6.10;99.90
54260;DHT22;40172;53.022;7.012;2024-03-23T13:48:24;6.00;99.90
54260;DHT22;40172;53.022;7.012;2024-03-23T13:51:05;5.90;99.90
54260;DHT22;40172;53.022;7.012;2024-03-23T13:53:31;6.00;99.90
54260;DHT22;40172;53.022;7.012;2024-03-23T13:56:00;6.00;99.90
54260;DHT22;40172;53.022;7.012;2024-03-23T13:58:26;6.20;99.90
54260;DHT22;40172;53.022;7.012;2024-03-23T14:00:52;6.30;99.90
54260;DHT22;40172;53.022;7.012;2024-03-23T14:03:18;6.80;99.90
54260;DHT22;40172;53.022;7.012;2024-03-23T14:05:46;7.00;99.90
54260;DHT22;40172;53.022;7.012;2024-03-23T14:08:15;7.30;99.90
54260;DHT22;40172;53.022;7.012;2024-03-23T14:10:41;7.30;99.90
54260;DHT22;40172;53.022;7.012;2024-03-23T14:13:07;7.40;99.90
54260;DHT22;40172;53.022;7.012;2024-03-23T14:15:33;7.50;99.90
54260;DHT22;40172;53.022;7.012;2024-03-23T14:17:59;7.80;99.90
54260;DHT22;40172;53.022;7.012;2024-03-23T14:20:25;8.10;99.90
54260;DHT22;40172;53.022;7.012;2024-03-23T14:22:52;8.30;99.90
54260;DHT22;40172;53.022;7.012;2024-03-23T14:25:18;8.40;99.90
54260;DHT22;40172;53.022;7.012;2024-03-23T14:27:44;8.50;99.90
54260;DHT22;40172;53.022;7.012;2024-03-23T14:30:10;8.80;99.90
54260;DHT22;40172;53.022;7.012;2024-03-23T14:32:37;8.90;99.90
54260;DHT22;40172;53.022;7.012;2024-03-23T14:35:04;8.90;99.90
54260;DHT22;40172;53.022;7.012;2024-03-23T14:37:30;9.00;99.90
54260;DHT22;40172;53.022;7.012;2024-03-23T14:39:56;9.10;99.90
54260;DHT22;40172;53.022;7.012;2024-03-23T14:42:23;9.00;99.90
54260;DHT22;40172;53.022;7.012;2024-03-23T14:44:52;8.90;99.90
54260;DHT22;40172;53.022;7.012;2024-03-23T14:47:19;8.80;99.90
54260;DHT22;40172;53.022;7.012;2024-03-23T14:49:45;8.60;99.90
54260;DHT22;40172;53.022;7.012;2024-03-23T14:52:16;8.30;99.90
54260;DHT22;40172;53.022;7.012;2024-03-23T14:54:43;8.20;99.90
54260;DHT22;40172;53.022;7.012;2024-03-23T14:57:09;7.90;99.90
54260;DHT22;40172;53.022;7.012;2024-03-23T14:59:35;7.80;99.90
54260;DHT22;40172;53.022;7.012;2024-03-23T15:02:01;7.70;99.90
54260;DHT22;40172;53.022;7.012;2024-03-23T15:04:27;7.60;99.90
54260;DHT22;40172;53.022;7.012;2024-03-23T15:06:52;7.60;99.90
54260;DHT22;40172;53.022;7.012;2024-03-23T15:09:18;7.50;99.90
54260;DHT22;40172;53.022;7.012;2024-03-23T15:11:44;7.60;99.90
54260;DHT22;40172;53.022;7.012;2024-03-23T15:14:10;7.60;99.90
54260;DHT22;40172;53.022;7.012;2024-03-23T15:16:36;7.70;99.90
54260;DHT22;40172;53.022;7.012;2024-03-23T15:19:02;7.70;99.90
54260;DHT22;40172;53.022;7.012;2024-03-23T15:21:28;7.80;99.90
54260;DHT22;40172;53.022;7.012;2024-03-23T15:23:54;8.00;99.90
54260;DHT22;40172;53.022;7.012;2024-03-23T15:26:19;8.20;99.90
54260;DHT22;40172;53.022;7.012;2024-03-23T15:28:49;8.20;99.90
54260;DHT22;40172;53.022;7.012;2024-03-23T15:31:24;8.30;99.90
54260;DHT22;40172;53.022;7.012;2024-03-23T15:33:50;8.30;99.90
54260;DHT22;40172;53.022;7.012;2024-03-23T15:36:15;8.30;99.90
54260;DHT22;40172;53.022;7.012;2024-03-23T15:38:41;8.30;99.90
54260;DHT22;40172;53.022;7.012;2024-03-23T15:41:08;8.30;99.90
54260;DHT22;40172;53.022;7.012;2024-03-23T15:43:34;8.30;99.90
54260;DHT22;40172;53.022;7.012;2024-03-23T15:46:01;8.30;99.90
54260;DHT22;40172;53.022;7.012;2024-03-23T15:48:28;8.30;99.90
54260;DHT22;40172;53.022;7.012;2024-03-23T15:50:55;8.30;99.90
54260;DHT22;40172;53.022;7.012;2024-03-23T15:53:22;8.30;99.90
54260;DHT22;40172;53.022;7.012;2024-03-23T15:55:57;8.20;99.90
54260;DHT22;40172;53.022;7.012;2024-03-23T15:58:24;8.10;99.90
54260;DHT22;40172;53.022;7.012;2024-03-23T16:01:06;7.90;99.90
54260;DHT22;40172;53.022;7.012;2024-03-23T16:03:36;7.70;99.90
54260;DHT22;40172;53.022;7.012;2024-03-23T16:06:07;7.60;99.90
54260;DHT22;40172;53.022;7.012;2024-03-23T16:08:33;7.50;99.90
54260;DHT22;40172;53.022;7.012;2024-03-23T16:11:00;7.20;99.90
54260;DHT22;40172;53.022;7.012;2024-03-23T16:13:27;7.10;99.90
54260;DHT22;40172;53.022;7.012;2024-03-23T16:15:58;7.00;99.90
54260;DHT22;40172;53.022;7.012;2024-03-23T16:18:24;7.10;99.90
54260;DHT22;40172;53.022;7.012;2024-03-23T16:20:53;7.40;99.90
54260;DHT22;40172;53.022;7.012;2024-03-23T16:23:19;7.20;99.90
54260;DHT22;40172;53.022;7.012;2024-03-23T16:25:49;7.40;99.90
54260;DHT22;40172;53.022;7.012;2024-03-23T16:28:32;7.50;99.90
54260;DHT22;40172;53.022;7.012;2024-03-23T16:30:58;7.50;99.90
54260;DHT22;40172;53.022;7.012;2024-03-23T16:33:25;7.60;99.90
54260;DHT22;40172;53.022;7.012;2024-03-23T16:36:03;7.60;99.90
54260;DHT22;40172;53.022;7.012;2024-03-23T16:38:33;7.70;99.90